Time;durP1;ratioP1;P1;durP2;ratioP2;P2;SDS_P1;SDS_P2;PMS_P1;PMS_P2;Temp;Humidity;BMP_temperature;BMP_pressure;BME280_temperature;BME280_humidity;BME280_pressure;Samples;Min_cycle;Max_cycle;Signal;HPM_P1;HPM_P2
2022/02/03 00:04:48;;;;;;;10.70;6.07;;;6.10;99.90;;;;;;4963775;28;20240;-72
2022/02/03 00:07:19;;;;;;;6.20;5.17;;;6.10;99.90;;;;;;4974916;28;20416;-73
2022/02/03 00:26:35;;;;;;;5.97;5.20;;;6.10;99.90;;;;;;4974424;28;20411;-73
2022/02/03 00:29:04;;;;;;;4.70;4.27;;;6.10;99.90;;;;;;4974424;28;20422;-72
2022/02/03 00:31:41;;;;;;;6.63;5.30;;;6.10;99.90;;;;;;4974087;28;20450;-72
2022/02/03 00:34:16;;;;;;;7.93;6.60;;;6.10;99.90;;;;;;4974165;28;20568;-73
2022/02/03 00:50:30;;;;;;;6.90;5.60;;;6.10;99.90;;;;;;4971105;28;20508;-73
2022/02/03 00:52:58;;;;;;;7.03;5.50;;;6.20;99.90;;;;;;4970707;28;20447;-72
2022/02/03 00:55:23;;;;;;;11.40;7.47;;;6.10;99.90;;;;;;4972285;28;20429;-73
2022/02/03 00:57:51;;;;;;;11.57;8.70;;;6.20;99.90;;;;;;4973426;28;20462;-73
2022/02/03 05:33:30;;;;;;;3.97;3.60;;;6.00;99.90;;;;;;5032018;23;20567;-69
2022/02/03 05:50:37;;;;;;;6.27;5.20;;;5.80;99.90;;;;;;4992733;28;20390;-75
2022/02/03 06:00:57;;;;;;;4.37;3.97;;;5.70;99.90;;;;;;4992824;28;20398;-74
2022/02/03 06:01:59;;;;;;;6.93;4.70;;;5.60;99.90;;;;;;4992503;28;20448;-75
2022/02/03 06:04:28;;;;;;;5.53;4.03;;;5.60;99.90;;;;;;4990330;28;20496;-75
2022/02/03 06:15:11;;;;;;;7.90;5.07;;;5.50;99.90;;;;;;4951180;29;20435;-75
2022/02/03 06:23:51;;;;;;;9.37;5.20;;;5.50;99.90;;;;;;4992428;28;20493;-75
2022/02/03 06:29:06;;;;;;;7.33;4.90;;;5.60;99.90;;;;;;4961527;28;20430;-74
2022/02/03 06:31:43;;;;;;;5.67;4.73;;;5.60;99.90;;;;;;4991708;28;20460;-74
2022/02/03 06:34:10;;;;;;;6.13;4.70;;;5.70;99.90;;;;;;4992452;28;20425;-74
2022/02/03 06:36:37;;;;;;;4.60;4.20;;;5.70;99.90;;;;;;4992066;28;20462;-75
2022/02/03 06:39:17;;;;;;;7.97;4.50;;;5.70;99.90;;;;;;4978049;28;20504;-74
2022/02/03 06:41:45;;;;;;;4.73;4.13;;;5.70;99.90;;;;;;4966638;28;20972;-74
2022/02/03 06:44:14;;;;;;;4.47;4.07;;;5.70;99.90;;;;;;4972205;28;20424;-75
2022/02/03 06:46:44;;;;;;;6.13;4.43;;;5.80;99.90;;;;;;4972852;28;20935;-75
2022/02/03 06:49:17;;;;;;;5.67;4.90;;;5.80;99.90;;;;;;4972349;28;20427;-74
2022/02/03 06:51:52;;;;;;;6.07;4.90;;;5.80;99.90;;;;;;4972519;28;20454;-74
2022/02/03 06:54:28;;;;;;;5.40;4.63;;;5.90;99.90;;;;;;4972467;28;20936;-75
2022/02/03 06:56:59;;;;;;;7.20;5.70;;;5.90;99.90;;;;;;4972303;28;20828;-74
2022/02/03 06:59:35;;;;;;;6.00;4.60;;;5.90;99.90;;;;;;4972599;28;20422;-74
2022/02/03 07:02:02;;;;;;;8.70;5.23;;;6.00;99.90;;;;;;4972263;28;20437;-74
2022/02/03 07:04:36;;;;;;;6.03;5.43;;;6.00;99.90;;;;;;4972313;28;20432;-75
2022/02/03 07:07:02;;;;;;;10.60;4.70;;;6.00;99.90;;;;;;4972372;28;20827;-75
2022/02/03 07:09:29;;;;;;;6.83;5.43;;;6.00;99.90;;;;;;4974143;28;20427;-74
2022/02/03 07:11:55;;;;;;;4.30;3.97;;;6.10;99.90;;;;;;4975796;28;20670;-74
2022/02/03 07:14:22;;;;;;;8.50;5.30;;;6.10;99.90;;;;;;4975929;28;20434;-74
2022/02/03 07:16:49;;;;;;;7.77;5.33;;;6.20;99.90;;;;;;4975995;28;20295;-74
2022/02/03 07:19:16;;;;;;;5.93;5.10;;;6.30;99.90;;;;;;4975950;28;20471;-74
2022/02/03 07:21:41;;;;;;;9.20;4.40;;;6.30;99.90;;;;;;4975881;28;20792;-75
2022/02/03 07:24:07;;;;;;;4.53;4.13;;;6.30;99.90;;;;;;4975724;28;20422;-75
2022/02/03 07:26:32;;;;;;;5.53;4.80;;;6.40;99.90;;;;;;4975899;28;20610;-74
2022/02/03 07:28:58;;;;;;;4.50;3.93;;;6.50;99.90;;;;;;4975848;28;20213;-74
2022/02/03 07:31:23;;;;;;;3.97;2.90;;;6.60;99.90;;;;;;4975535;28;20223;-75
2022/02/03 07:33:49;;;;;;;5.80;4.50;;;6.60;99.90;;;;;;4975915;28;20213;-74
2022/02/03 07:36:14;;;;;;;7.23;4.27;;;6.70;99.90;;;;;;4975404;28;20209;-74
2022/02/03 07:38:40;;;;;;;4.57;4.17;;;6.80;99.90;;;;;;4975602;28;20192;-74
2022/02/03 07:41:06;;;;;;;4.37;3.70;;;6.80;99.90;;;;;;4975068;28;20289;-75
2022/02/03 07:43:32;;;;;;;4.33;3.93;;;6.90;99.90;;;;;;4975501;28;20180;-74
2022/02/03 07:45:58;;;;;;;5.70;4.90;;;7.00;99.90;;;;;;4975442;28;20484;-74
2022/02/03 07:48:24;;;;;;;8.37;5.00;;;7.00;99.90;;;;;;4975591;28;20697;-75
2022/02/03 07:50:50;;;;;;;4.00;3.70;;;7.10;99.90;;;;;;4975299;28;20433;-74
2022/02/03 07:53:16;;;;;;;5.13;4.70;;;7.10;99.90;;;;;;4975050;28;20244;-75
2022/02/03 07:55:42;;;;;;;4.10;3.70;;;7.20;99.90;;;;;;4975408;28;20185;-74
2022/02/03 07:58:08;;;;;;;5.40;3.90;;;7.20;99.90;;;;;;4975243;28;20424;-75
2022/02/03 08:00:34;;;;;;;4.33;3.83;;;7.20;99.90;;;;;;4975127;28;20420;-74
2022/02/03 08:03:04;;;;;;;4.73;4.33;;;7.30;99.90;;;;;;4974962;28;20406;-75
2022/02/03 08:05:29;;;;;;;3.67;2.63;;;7.30;99.90;;;;;;4975316;28;20180;-74
2022/02/03 08:10:41;;;;;;;2.90;2.50;;;7.40;99.90;;;;;;4975002;28;20187;-74
2022/02/03 08:13:10;;;;;;;5.23;2.60;;;7.40;99.90;;;;;;4974878;28;20416;-74
2022/02/03 08:15:39;;;;;;;3.80;2.57;;;7.40;99.90;;;;;;4975066;28;20467;-75
2022/02/03 08:18:09;;;;;;;3.00;2.80;;;7.50;99.90;;;;;;4974890;28;20464;-75
2022/02/03 08:20:35;;;;;;;5.23;3.87;;;7.60;99.90;;;;;;4974404;28;20497;-73
2022/02/03 08:25:40;;;;;;;2.80;2.50;;;7.60;99.90;;;;;;4973247;28;20176;-75
2022/02/03 08:28:34;;;;;;;3.20;2.07;;;7.70;99.90;;;;;;4974556;28;20410;-74
2022/02/03 08:31:09;;;;;;;5.93;3.13;;;7.80;99.90;;;;;;4972012;28;20518;-75
2022/02/03 08:33:35;;;;;;;3.93;2.77;;;7.80;99.90;;;;;;4974219;28;20417;-75
2022/02/03 08:36:06;;;;;;;2.90;2.70;;;8.00;99.90;;;;;;4974272;28;20489;-75
2022/02/03 08:41:01;;;;;;;2.10;1.90;;;8.20;99.90;;;;;;4974168;28;21012;-74
2022/02/03 08:43:32;;;;;;;3.30;2.27;;;8.30;99.90;;;;;;4973966;28;20704;-74
2022/02/03 08:46:00;;;;;;;2.20;2.00;;;8.40;99.90;;;;;;4974147;28;20412;-75
2022/02/03 08:48:25;;;;;;;4.90;2.67;;;8.50;99.90;;;;;;4974119;28;20417;-74
2022/02/03 08:50:51;;;;;;;2.50;2.40;;;8.50;99.90;;;;;;4973946;28;20438;-75
2022/02/03 09:34:29;;;;;;;3.27;3.07;;;9.70;99.90;;;;;;4971664;28;20444;-74
2022/02/03 09:38:38;;;;;;;4.60;4.00;;;9.70;99.90;;;;;;4973618;28;20529;-73
2022/02/03 09:55:02;;;;;;;2.97;2.77;;;9.70;99.90;;;;;;4973179;28;20416;-73
2022/02/03 10:00:15;;;;;;;4.80;4.03;;;9.50;99.90;;;;;;4973261;28;20425;-72
2022/02/03 10:02:55;;;;;;;1.90;1.80;;;9.40;99.90;;;;;;4972395;28;20462;-73
2022/02/03 10:05:35;;;;;;;2.40;1.70;;;9.40;99.90;;;;;;4972992;28;20457;-73
2022/02/03 10:08:00;;;;;;;1.97;1.80;;;9.40;99.90;;;;;;4972746;28;20418;-73
2022/02/03 10:10:29;;;;;;;2.03;1.90;;;9.30;99.90;;;;;;4972857;28;20416;-72
2022/02/03 10:12:54;;;;;;;2.33;2.20;;;9.30;99.90;;;;;;4970897;28;20194;-73
2022/02/03 10:15:21;;;;;;;2.63;2.40;;;9.20;99.90;;;;;;4972188;28;20425;-72
2022/02/03 10:17:49;;;;;;;1.63;1.53;;;9.30;99.90;;;;;;4972697;28;20206;-72
2022/02/03 10:20:20;;;;;;;2.13;2.03;;;9.60;99.90;;;;;;4972738;28;20510;-73
2022/02/03 10:22:59;;;;;;;5.90;2.50;;;9.90;99.90;;;;;;4972358;28;20993;-71
2022/02/03 10:25:36;;;;;;;2.50;2.30;;;10.30;99.90;;;;;;4972587;28;20414;-72
2022/02/03 10:28:07;;;;;;;1.53;1.43;;;10.50;99.90;;;;;;4972597;28;20427;-73
2022/02/03 10:30:48;;;;;;;1.77;1.67;;;10.60;99.90;;;;;;4972483;28;20418;-72
2022/02/03 10:33:15;;;;;;;1.83;1.73;;;10.60;99.90;;;;;;4972105;28;20454;-72
2022/02/03 10:35:49;;;;;;;2.33;2.13;;;10.70;99.90;;;;;;4972558;28;20419;-72
2022/02/03 10:51:42;;;;;;;1.57;1.47;;;10.60;99.90;;;;;;4976303;28;20433;-72
2022/02/03 10:54:22;;;;;;;1.10;1.07;;;10.30;99.90;;;;;;4975658;28;20443;-73
2022/02/03 10:57:29;;;;;;;5.20;3.80;;;10.50;99.90;;;;;;4975960;28;20820;-73
2022/02/03 11:08:12;;;;;;;1.13;1.13;;;10.70;99.90;;;;;;4976074;28;20445;-73
2022/02/03 11:10:42;;;;;;;1.27;1.17;;;10.90;99.90;;;;;;4975879;28;20796;-72
2022/02/03 11:13:10;;;;;;;1.77;1.50;;;10.90;99.90;;;;;;4975151;28;20481;-73
2022/02/03 11:15:36;;;;;;;1.67;1.57;;;10.40;99.90;;;;;;4974990;28;20460;-72
2022/02/03 11:18:06;;;;;;;1.57;1.50;;;10.10;99.90;;;;;;4976184;28;20465;-73
2022/02/03 11:20:37;;;;;;;1.30;1.20;;;10.30;99.90;;;;;;4975798;28;20182;-73
2022/02/03 11:38:59;;;;;;;1.60;1.50;;;10.40;99.90;;;;;;4974637;28;20405;-71
2022/02/03 11:42:04;;;;;;;1.10;1.00;;;10.40;99.90;;;;;;4975265;28;21005;-73
2022/02/03 11:47:40;;;;;;;0.90;0.90;;;10.60;99.90;;;;;;4975531;28;20409;-73
2022/02/03 11:50:50;;;;;;;1.03;1.03;;;10.60;99.90;;;;;;4975161;28;20399;-72
2022/02/03 12:01:55;;;;;;;1.20;1.20;;;10.90;99.90;;;;;;4975285;28;21008;-72
2022/02/03 12:08:05;;;;;;;1.00;0.90;;;11.20;99.90;;;;;;4974773;28;20429;-73
2022/02/03 12:21:42;;;;;;;0.90;0.90;;;11.20;99.90;;;;;;4974695;28;20469;-73
2022/02/03 12:24:48;;;;;;;1.00;0.90;;;11.20;99.90;;;;;;4973081;28;20418;-72
2022/02/03 12:30:37;;;;;;;1.20;1.10;;;11.20;99.90;;;;;;4974496;28;20522;-72
2022/02/03 12:33:18;;;;;;;0.97;0.97;;;11.20;99.90;;;;;;4973731;28;20462;-73
2022/02/03 12:38:57;;;;;;;1.20;1.10;;;11.30;99.90;;;;;;4980965;28;20984;-73
2022/02/03 12:41:19;;;;;;;1.70;1.60;;;11.30;99.90;;;;;;4969219;28;20854;-72
2022/02/03 12:44:01;;;;;;;5.23;1.07;;;11.20;99.90;;;;;;4972947;28;20577;-72
2022/02/03 12:46:28;;;;;;;0.97;0.90;;;11.30;99.90;;;;;;4974329;28;20445;-73
2022/02/03 12:48:58;;;;;;;1.07;0.87;;;11.40;99.90;;;;;;4974085;28;20830;-73
2022/02/03 12:51:24;;;;;;;1.20;0.90;;;11.40;99.90;;;;;;4974347;28;20454;-72
2022/02/03 12:53:51;;;;;;;1.87;0.90;;;11.30;99.90;;;;;;4973582;28;20414;-73
2022/02/03 12:56:24;;;;;;;2.40;1.53;;;11.40;99.90;;;;;;4973984;28;20462;-72
2022/02/03 12:58:59;;;;;;;1.17;0.97;;;11.30;99.90;;;;;;4973813;28;20427;-73
2022/02/03 13:01:36;;;;;;;1.00;0.87;;;11.40;99.90;;;;;;4974318;28;20955;-73
2022/02/03 13:04:09;;;;;;;3.53;1.73;;;11.30;99.90;;;;;;4974691;28;20931;-73
2022/02/03 13:06:40;;;;;;;1.40;0.93;;;11.30;99.90;;;;;;4973235;28;20418;-73
2022/02/03 13:09:08;;;;;;;0.77;0.77;;;11.30;99.90;;;;;;4973866;28;20457;-72
2022/02/03 13:11:42;;;;;;;1.33;1.03;;;11.30;99.90;;;;;;4973893;28;20439;-72
2022/02/03 13:17:05;;;;;;;1.53;1.23;;;11.30;99.90;;;;;;4973298;28;20813;-72
2022/02/03 13:25:19;;;;;;;1.23;0.77;;;11.20;99.90;;;;;;4973519;28;20967;-73
2022/02/03 13:31:00;;;;;;;1.43;1.27;;;11.10;99.90;;;;;;4974083;28;20422;-72
2022/02/03 13:33:27;;;;;;;2.13;0.90;;;11.10;99.90;;;;;;4968436;28;20430;-72
2022/02/03 13:35:57;;;;;;;0.83;0.83;;;11.10;99.90;;;;;;4965395;28;20979;-71
2022/02/03 13:41:27;;;;;;;2.00;1.10;;;10.70;99.90;;;;;;4973326;28;20525;-74
2022/02/03 13:43:53;;;;;;;2.30;1.80;;;10.70;99.90;;;;;;4972621;28;20410;-72
2022/02/03 13:46:30;;;;;;;1.40;1.17;;;10.80;99.90;;;;;;4973230;28;20455;-72
2022/02/03 13:48:57;;;;;;;2.50;1.03;;;10.70;99.90;;;;;;4972967;28;20451;-72
2022/02/03 13:51:31;;;;;;;0.87;0.87;;;10.70;99.90;;;;;;4971992;28;20812;-72
2022/02/03 14:18:33;;;;;;;2.70;1.40;;;11.10;99.90;;;;;;4972845;28;20434;-72
2022/02/03 14:28:40;;;;;;;1.40;1.30;;;11.00;99.90;;;;;;4972712;28;20421;-72
2022/02/03 14:31:08;;;;;;;4.50;1.60;;;10.90;99.90;;;;;;4972108;28;20488;-73
2022/02/03 14:33:40;;;;;;;2.10;1.13;;;11.00;99.90;;;;;;4972288;28;20419;-73
2022/02/03 14:36:12;;;;;;;0.97;0.90;;;10.90;99.90;;;;;;4972445;28;20435;-71
2022/02/03 14:43:32;;;;;;;1.70;1.10;;;10.80;99.90;;;;;;4972151;28;20566;-72
2022/02/03 14:46:00;;;;;;;2.47;1.60;;;10.70;99.90;;;;;;4972611;28;20179;-71
2022/02/03 14:48:25;;;;;;;1.57;1.20;;;10.60;99.90;;;;;;4972600;28;20190;-70
2022/02/03 14:50:54;;;;;;;1.27;1.17;;;10.50;99.90;;;;;;4972092;28;20438;-73
2022/02/03 14:53:30;;;;;;;1.17;1.17;;;10.50;99.90;;;;;;4972186;28;20576;-73
2022/02/03 14:58:39;;;;;;;1.60;1.50;;;10.40;99.90;;;;;;4972387;28;20421;-73
2022/02/03 15:01:05;;;;;;;1.50;1.20;;;10.30;99.90;;;;;;4972262;28;20435;-74
2022/02/03 15:03:31;;;;;;;1.50;1.40;;;10.30;99.90;;;;;;4970108;28;20203;-73
2022/02/03 15:06:03;;;;;;;1.57;1.17;;;10.30;99.90;;;;;;4970713;28;20558;-72
2022/02/03 15:08:46;;;;;;;1.40;1.30;;;10.30;99.90;;;;;;4959956;28;20222;-73
2022/02/03 15:11:26;;;;;;;1.23;1.13;;;10.20;99.90;;;;;;4971479;28;20965;-73
2022/02/03 15:13:51;;;;;;;1.37;1.27;;;10.20;99.90;;;;;;4971344;28;20475;-73
2022/02/03 15:16:17;;;;;;;0.87;0.70;;;10.20;99.90;;;;;;4971653;28;20560;-72
2022/02/03 15:18:43;;;;;;;1.30;1.00;;;10.20;99.90;;;;;;4971661;28;20233;-72
2022/02/03 15:21:12;;;;;;;1.30;1.20;;;10.10;99.90;;;;;;4970070;28;20255;-74
2022/02/03 15:23:37;;;;;;;1.53;1.27;;;10.10;99.90;;;;;;4951864;29;20195;-73
2022/02/03 15:26:04;;;;;;;1.53;1.20;;;10.00;99.90;;;;;;4952840;29;20418;-72
2022/02/03 15:28:30;;;;;;;3.07;1.63;;;10.00;99.90;;;;;;4952687;29;20190;-72
2022/02/03 15:30:56;;;;;;;1.80;1.53;;;9.90;99.90;;;;;;4954751;28;20512;-73
2022/02/03 15:33:26;;;;;;;2.63;1.40;;;9.90;99.90;;;;;;4955986;29;20186;-72
2022/02/03 15:35:56;;;;;;;1.47;1.20;;;9.90;99.90;;;;;;4956405;29;20515;-74
2022/02/03 15:38:23;;;;;;;4.60;1.73;;;9.80;99.90;;;;;;4955986;29;20487;-74
2022/02/03 15:40:50;;;;;;;2.37;1.47;;;9.80;99.90;;;;;;4955880;29;20510;-73
2022/02/03 15:45:51;;;;;;;1.50;1.40;;;9.80;99.90;;;;;;4956107;28;20502;-74
2022/02/03 15:51:02;;;;;;;1.77;0.90;;;9.70;99.90;;;;;;4955773;29;20463;-73
2022/02/03 16:04:25;;;;;;;4.33;1.30;;;9.30;99.90;;;;;;4959246;28;20472;-73
2022/02/03 16:17:50;;;;;;;1.40;1.30;;;9.00;99.90;;;;;;4974549;28;20848;-71
2022/02/03 16:20:31;;;;;;;1.30;1.20;;;9.00;99.90;;;;;;4955235;28;20446;-72
2022/02/03 16:23:30;;;;;;;2.47;2.30;;;8.90;99.90;;;;;;4954366;28;20447;-71
2022/02/03 16:50:43;;;;;;;6.50;3.60;;;8.40;99.90;;;;;;4973800;28;20505;-73
2022/02/03 16:53:09;;;;;;;4.00;3.20;;;8.30;99.90;;;;;;4973480;28;20447;-73
2022/02/03 16:55:37;;;;;;;3.60;2.67;;;8.20;99.90;;;;;;4973890;28;20907;-73
2022/02/03 16:58:06;;;;;;;10.17;4.33;;;8.20;99.90;;;;;;4973911;28;20591;-73
2022/02/03 17:00:31;;;;;;;6.13;4.27;;;8.10;99.90;;;;;;4973764;28;20445;-71
2022/02/03 17:02:58;;;;;;;7.97;4.40;;;8.10;99.90;;;;;;4973580;28;20470;-73
2022/02/03 17:05:24;;;;;;;7.93;4.60;;;8.00;99.90;;;;;;4973999;28;20206;-73
2022/02/03 17:07:49;;;;;;;3.70;3.40;;;7.90;99.90;;;;;;4974086;28;20973;-73
2022/02/03 17:10:15;;;;;;;3.93;3.53;;;7.90;99.90;;;;;;4973315;28;20218;-73
2022/02/03 17:12:41;;;;;;;5.10;2.60;;;7.90;99.90;;;;;;4973356;28;20560;-74
2022/02/03 17:15:07;;;;;;;8.80;5.60;;;7.80;99.90;;;;;;4973579;28;20194;-76
2022/02/03 17:17:32;;;;;;;9.00;5.90;;;7.80;99.90;;;;;;4973921;28;20473;-74
2022/02/03 17:19:58;;;;;;;8.50;6.27;;;7.70;99.90;;;;;;4973609;28;20429;-73
2022/02/03 17:22:30;;;;;;;6.87;4.47;;;7.70;99.90;;;;;;4973595;28;20585;-73
2022/02/03 17:25:06;;;;;;;13.10;4.70;;;7.60;99.90;;;;;;4973324;28;20173;-73
2022/02/03 17:30:07;;;;;;;6.40;4.33;;;7.60;99.90;;;;;;4973548;28;20423;-73
2022/02/03 18:08:36;;;;;;;6.27;5.67;;;7.50;99.90;;;;;;4973055;28;20418;-72
2022/02/03 18:30:57;;;;;;;10.60;6.70;;;7.40;99.90;;;;;;4953146;29;20453;-73
2022/02/03 18:33:06;;;;;;;7.80;6.93;;;7.40;99.90;;;;;;4943472;29;20460;-73
2022/02/03 18:35:56;;;;;;;7.50;6.67;;;7.40;99.90;;;;;;4953148;28;20453;-74
2022/02/03 18:57:36;;;;;;;7.03;4.77;;;7.10;99.90;;;;;;4918266;28;20243;-73
2022/02/03 19:00:20;;;;;;;6.70;6.07;;;7.10;99.90;;;;;;4971083;28;20510;-73
2022/02/03 19:16:31;;;;;;;12.50;7.23;;;6.70;99.90;;;;;;4975703;28;20455;-73
2022/02/03 20:02:18;;;;;;;11.30;7.53;;;6.00;99.90;;;;;;4955846;28;20608;-74
2022/02/03 20:12:41;;;;;;;6.00;4.43;;;5.80;99.90;;;;;;4895778;29;20215;-73
2022/02/03 20:15:07;;;;;;;9.33;5.50;;;5.70;99.90;;;;;;4895686;29;20530;-73
2022/02/03 20:17:33;;;;;;;4.63;4.23;;;5.70;99.90;;;;;;4923067;29;20229;-74
2022/02/03 20:19:58;;;;;;;8.83;5.30;;;5.60;99.90;;;;;;4955256;29;20439;-73
2022/02/03 20:22:32;;;;;;;7.63;5.50;;;5.60;99.90;;;;;;4954981;28;20541;-74
2022/02/03 20:24:58;;;;;;;9.97;5.27;;;5.60;99.90;;;;;;4954798;29;20241;-73
2022/02/03 20:27:24;;;;;;;7.90;5.90;;;5.60;99.90;;;;;;4955511;28;20468;-73
2022/02/03 20:29:49;;;;;;;6.90;5.80;;;5.50;99.90;;;;;;4955408;29;20446;-73
2022/02/03 20:32:17;;;;;;;8.97;6.07;;;5.50;99.90;;;;;;4954592;28;20228;-74
2022/02/03 20:34:43;;;;;;;6.20;5.47;;;5.50;99.90;;;;;;4953902;29;20196;-74
2022/02/03 20:37:09;;;;;;;6.60;5.83;;;5.60;99.90;;;;;;4955004;28;20483;-75
2022/02/03 20:39:34;;;;;;;6.33;5.70;;;5.50;99.90;;;;;;4954479;29;20418;-73
2022/02/03 20:42:00;;;;;;;6.57;5.77;;;5.50;99.90;;;;;;4954480;28;20210;-74
2022/02/03 20:44:25;;;;;;;5.83;5.30;;;5.40;99.90;;;;;;4954577;29;20204;-73
2022/02/03 20:46:51;;;;;;;8.40;5.97;;;5.40;99.90;;;;;;4954708;28;20715;-73
2022/02/03 20:49:16;;;;;;;23.70;10.80;;;5.40;99.90;;;;;;4954874;29;20207;-73
2022/02/03 20:51:43;;;;;;;40.97;26.53;;;5.40;99.90;;;;;;4954673;28;20243;-73
2022/02/03 20:54:09;;;;;;;28.00;18.67;;;5.30;99.90;;;;;;4962331;28;20238;-73
2022/02/03 20:56:36;;;;;;;16.30;11.77;;;5.30;99.90;;;;;;4973956;28;20520;-73
2022/02/03 20:59:05;;;;;;;10.33;8.93;;;5.30;99.90;;;;;;4973984;28;20528;-73
2022/02/03 21:01:34;;;;;;;8.50;6.13;;;5.30;99.90;;;;;;4973720;28;20953;-73
2022/02/03 21:04:06;;;;;;;8.43;5.90;;;5.30;99.90;;;;;;4973556;28;20444;-72
2022/02/03 21:06:32;;;;;;;7.97;6.00;;;5.30;99.90;;;;;;4973769;28;20526;-73
2022/02/03 21:08:58;;;;;;;6.80;6.07;;;5.30;99.90;;;;;;4973790;28;20442;-73
2022/02/03 21:11:24;;;;;;;8.03;6.23;;;5.30;99.90;;;;;;4973447;28;20270;-74
2022/02/03 21:13:50;;;;;;;9.60;6.87;;;5.20;99.90;;;;;;4973279;28;20207;-74
2022/02/03 21:16:16;;;;;;;8.50;6.90;;;5.20;99.90;;;;;;4973371;28;20453;-73
2022/02/03 21:18:44;;;;;;;9.37;6.57;;;5.30;99.90;;;;;;4964501;28;20446;-74
2022/02/03 21:21:10;;;;;;;15.67;6.30;;;5.20;99.90;;;;;;4953993;28;20210;-73
2022/02/03 21:23:37;;;;;;;8.20;6.43;;;5.20;99.90;;;;;;4957905;28;20452;-74
2022/02/03 21:26:07;;;;;;;7.47;6.30;;;5.20;99.90;;;;;;4973420;28;20230;-72
2022/02/03 21:28:35;;;;;;;7.73;6.27;;;5.20;99.90;;;;;;4972535;28;20458;-71
2022/02/03 21:31:03;;;;;;;10.60;7.50;;;5.10;99.90;;;;;;4972916;28;20535;-72
2022/02/03 21:33:45;;;;;;;9.53;7.10;;;5.10;99.90;;;;;;4971394;28;20585;-73
2022/02/03 21:36:12;;;;;;;9.50;7.33;;;5.10;99.90;;;;;;4973270;28;20443;-73
2022/02/03 21:38:41;;;;;;;13.60;6.63;;;5.10;99.90;;;;;;4973276;28;20434;-73
2022/02/03 21:41:08;;;;;;;10.00;7.20;;;5.10;99.90;;;;;;4972907;28;20442;-74
2022/02/03 21:43:34;;;;;;;11.00;7.03;;;5.10;99.90;;;;;;4971323;28;20453;-73
2022/02/03 21:46:00;;;;;;;9.83;6.60;;;5.10;99.90;;;;;;4973194;28;20442;-73
2022/02/03 21:48:26;;;;;;;9.50;6.90;;;5.10;99.90;;;;;;4973016;28;20240;-74
2022/02/03 21:50:54;;;;;;;8.60;7.10;;;5.10;99.90;;;;;;4973008;28;20428;-73
2022/02/03 21:53:23;;;;;;;7.97;6.40;;;5.10;99.90;;;;;;4972669;28;20402;-74
2022/02/03 21:55:50;;;;;;;8.77;6.90;;;5.10;99.90;;;;;;4973160;28;20436;-73
2022/02/03 21:58:16;;;;;;;9.80;6.23;;;5.00;99.90;;;;;;4972764;28;21057;-72
2022/02/03 22:00:42;;;;;;;9.27;6.70;;;5.10;99.90;;;;;;4972819;28;20461;-72
2022/02/03 22:03:08;;;;;;;8.27;6.80;;;5.00;99.90;;;;;;4972263;28;20470;-73
2022/02/03 22:05:35;;;;;;;7.80;5.77;;;5.10;99.90;;;;;;4972990;28;20476;-72
2022/02/03 22:08:01;;;;;;;11.30;6.43;;;5.10;99.90;;;;;;4972500;28;20639;-72
2022/02/03 22:10:27;;;;;;;6.87;5.23;;;5.10;99.90;;;;;;4972644;28;20533;-73
2022/02/03 22:12:53;;;;;;;13.33;7.60;;;5.10;99.90;;;;;;4972124;28;20227;-71
2022/02/03 22:15:20;;;;;;;22.13;10.57;;;5.10;99.90;;;;;;4972856;28;20450;-75
2022/02/03 22:17:47;;;;;;;25.73;14.00;;;5.10;99.90;;;;;;4972193;28;20588;-73
2022/02/03 22:20:26;;;;;;;14.83;9.73;;;5.10;99.90;;;;;;4972787;28;20873;-73
2022/02/03 22:48:58;;;;;;;14.10;8.93;;;5.10;99.90;;;;;;4978444;28;20213;-74
2022/02/03 22:51:23;;;;;;;13.73;9.57;;;5.10;99.90;;;;;;4978859;28;20967;-73
2022/02/03 22:53:49;;;;;;;12.93;9.17;;;5.10;99.90;;;;;;4976896;28;20216;-74
2022/02/03 22:56:16;;;;;;;14.50;9.57;;;5.20;99.90;;;;;;4979170;28;20198;-73
2022/02/03 23:01:26;;;;;;;14.47;8.77;;;5.20;99.90;;;;;;4978714;28;20954;-73
2022/02/03 23:03:52;;;;;;;10.13;8.63;;;5.20;99.90;;;;;;4978052;28;20963;-74
2022/02/03 23:06:18;;;;;;;9.20;7.60;;;5.20;99.90;;;;;;4978667;28;20497;-75
2022/02/03 23:16:43;;;;;;;11.73;9.23;;;5.20;99.90;;;;;;4978547;28;20426;-74
2022/02/03 23:22:08;;;;;;;12.53;9.10;;;5.30;99.90;;;;;;4978008;28;20966;-74
2022/02/03 23:24:34;;;;;;;12.13;8.70;;;5.30;99.90;;;;;;4978205;28;20614;-72
2022/02/03 23:27:49;;;;;;;12.43;8.97;;;5.40;99.90;;;;;;4977469;28;20529;-73
2022/02/03 23:29:52;;;;;;;11.70;9.17;;;5.40;99.90;;;;;;4977190;28;20206;-73
2022/02/03 23:32:18;;;;;;;10.43;8.53;;;5.40;99.90;;;;;;4979029;28;20465;-74
2022/02/03 23:34:49;;;;;;;9.00;8.03;;;5.40;99.90;;;;;;4978390;28;20456;-74
2022/02/03 23:37:14;;;;;;;13.33;9.73;;;5.50;99.90;;;;;;4978602;28;20477;-73
2022/02/03 23:40:05;;;;;;;13.57;9.53;;;5.50;99.90;;;;;;4978570;28;20455;-73
2022/02/03 23:45:31;;;;;;;15.63;8.80;;;5.60;99.90;;;;;;4978487;28;20451;-73
